createdAt,value
2023-04-21T00:00:56.456Z,70.22
2023-04-21T00:06:01.568Z,69.34
2023-04-21T00:11:04.582Z,68.74
2023-04-21T00:16:09.168Z,70.03
2023-04-21T00:21:12.161Z,69.13
2023-04-21T00:26:16.649Z,69.19
2023-04-21T00:31:25.431Z,67.26
2023-04-21T00:36:28.592Z,68.89
2023-04-21T00:41:31.829Z,69.06
2023-04-21T00:46:36.489Z,67.13
2023-04-21T00:51:39.299Z,68.01
2023-04-21T00:56:42.087Z,66.83
2023-04-21T01:01:46.399Z,66.73
2023-04-21T01:06:51.003Z,67.71
2023-04-21T01:12:13.275Z,66.64
2023-04-21T01:17:18.798Z,66.34
2023-04-21T01:22:24.931Z,66.73
2023-04-21T01:27:27.878Z,67.77
2023-04-21T01:32:31.529Z,67.32
2023-04-21T01:37:36.283Z,68.68
2023-04-21T01:42:42.587Z,69.57
2023-04-21T01:47:46.001Z,68.91
2023-04-21T01:52:51.017Z,69.23
2023-04-21T01:57:53.770Z,68.34
2023-04-21T02:02:56.740Z,68.63
2023-04-21T02:08:00.977Z,69.48
2023-04-21T02:13:03.904Z,68.53
2023-04-21T02:18:08.289Z,70.59
2023-04-21T02:23:12.976Z,70.65
2023-04-21T02:28:15.936Z,70.06
2023-04-21T02:33:18.679Z,69.98
2023-04-21T02:38:22.875Z,69.61
2023-04-21T02:43:25.975Z,68.83
2023-04-21T02:48:28.693Z,68.61
2023-04-21T02:53:32.975Z,68.76
2023-04-21T02:58:36.042Z,69.00
2023-04-21T03:03:38.968Z,69.35
2023-04-21T03:08:43.196Z,68.02
2023-04-21T03:13:46.119Z,68.56
2023-04-21T03:18:48.860Z,68.65
2023-04-21T03:23:54.051Z,67.79
2023-04-21T03:28:56.835Z,67.13
2023-04-21T03:34:00.054Z,68.07
2023-04-21T03:39:16.922Z,66.03
2023-04-21T03:44:22.512Z,67.00
2023-04-21T03:49:25.545Z,67.23
2023-04-21T03:54:29.651Z,66.81
2023-04-21T03:59:32.411Z,67.36
2023-04-21T04:04:35.486Z,66.94
2023-04-21T04:09:39.676Z,66.96
2023-04-21T04:14:42.427Z,66.42
2023-04-21T04:19:45.275Z,65.76
2023-04-21T04:24:49.381Z,66.48
2023-04-21T04:29:53.124Z,67.75
2023-04-21T04:34:57.441Z,65.71
2023-04-21T04:40:01.652Z,64.63
2023-04-21T04:45:05.904Z,63.53
2023-04-21T04:50:09.191Z,63.43
2023-04-21T04:55:13.624Z,62.76
2023-04-21T05:00:16.752Z,60.42
2023-04-21T05:05:20.333Z,59.66
2023-04-21T05:10:24.901Z,61.81
2023-04-21T05:15:27.703Z,60.04
2023-04-21T05:20:30.531Z,59.86
2023-04-21T05:25:34.885Z,61.76
2023-04-21T05:30:37.657Z,59.55
2023-04-21T05:35:40.710Z,59.82
2023-04-21T05:40:45.359Z,59.21
2023-04-21T05:45:48.153Z,58.80
2023-04-21T05:50:50.921Z,57.29
2023-04-21T05:55:54.985Z,56.63
2023-04-21T06:00:59.775Z,54.80
2023-04-21T06:06:04.296Z,48.40
2023-04-21T06:11:08.572Z,43.29
2023-04-21T06:16:11.509Z,44.97
2023-04-21T06:21:14.394Z,43.94
2023-04-21T06:26:23.650Z,39.26
2023-04-21T06:31:27.110Z,35.74
2023-04-21T06:36:29.905Z,34.32
2023-04-21T06:41:35.124Z,33.19
2023-04-21T06:46:38.043Z,32.93
2023-04-21T06:51:40.943Z,36.33
2023-04-21T06:56:45.165Z,34.71
2023-04-21T07:01:49.063Z,31.09
2023-04-21T07:06:51.997Z,29.88
2023-04-21T07:11:56.501Z,30.78
2023-04-21T07:16:59.502Z,31.77
2023-04-21T07:22:02.376Z,30.45
2023-04-21T07:27:07.262Z,31.13
2023-04-21T07:32:10.417Z,29.89
2023-04-21T07:37:13.477Z,31.55
2023-04-21T07:42:19.036Z,32.13
2023-04-21T07:47:21.963Z,31.08
2023-04-21T07:52:24.932Z,33.51
2023-04-21T07:57:29.202Z,34.26
2023-04-21T08:02:32.043Z,35.10
2023-04-21T08:07:34.915Z,34.66
2023-04-21T08:12:39.253Z,36.59
2023-04-21T08:17:42.191Z,39.83
2023-04-21T08:22:47.374Z,42.29
2023-04-21T08:27:53.823Z,44.12
2023-04-21T08:32:56.690Z,43.87
2023-04-21T08:37:59.432Z,44.05
2023-04-21T08:43:03.656Z,42.66
2023-04-21T08:48:07.763Z,42.54
2023-04-21T08:53:14.707Z,41.82
2023-04-21T08:58:18.953Z,41.20
2023-04-21T09:03:26.263Z,42.38
2023-04-21T09:08:30.476Z,42.42
2023-04-21T09:13:35.965Z,42.08
2023-04-21T09:18:40.404Z,42.00
2023-04-21T09:23:44.564Z,42.79
2023-04-21T09:28:50.234Z,42.90
2023-04-21T09:33:59.645Z,42.89
2023-04-21T09:44:12.843Z,40.13
2023-04-21T09:49:18.490Z,40.56
2023-04-21T09:59:31.912Z,39.63
2023-04-21T10:04:36.177Z,39.59
2023-04-21T10:09:44.084Z,39.54
2023-04-21T10:14:52.205Z,38.58
2023-04-21T10:19:57.148Z,38.08
2023-04-21T10:25:02.123Z,38.25
2023-04-21T10:30:22.481Z,37.56
2023-04-21T10:35:26.077Z,37.16
2023-04-21T10:40:44.318Z,37.26
2023-04-21T10:45:49.459Z,37.87
2023-04-21T10:50:52.909Z,37.78
2023-04-21T10:55:56.156Z,37.99
2023-04-21T11:01:03.323Z,37.45
2023-04-21T11:06:15.666Z,37.27
2023-04-21T11:11:23.693Z,36.87
2023-04-21T11:16:28.115Z,35.37
2023-04-21T11:21:31.089Z,36.73
2023-04-21T11:26:34.602Z,36.08
2023-04-21T11:31:40.511Z,34.63
2023-04-21T11:36:45.369Z,34.79
2023-04-21T11:41:49.935Z,34.36
2023-04-21T11:46:54.290Z,34.69
2023-04-21T11:51:57.675Z,34.45
2023-04-21T11:57:02.897Z,33.70
2023-04-21T12:02:14.156Z,33.56
2023-04-21T12:07:23.989Z,34.31
2023-04-21T12:12:27.998Z,33.59
2023-04-21T12:17:38.899Z,34.25
2023-04-21T12:22:41.688Z,31.80
2023-04-21T12:27:49.981Z,31.70
2023-04-21T12:32:55.765Z,30.94
2023-04-21T12:37:58.835Z,28.93
2023-04-21T12:43:01.654Z,29.55
2023-04-21T12:48:06.655Z,29.50
2023-04-21T12:53:09.496Z,28.56
2023-04-21T12:58:12.726Z,29.09
2023-04-21T13:03:16.944Z,27.75
2023-04-21T13:08:19.967Z,28.93
2023-04-21T13:13:22.796Z,28.72
2023-04-21T13:18:27.040Z,28.73
2023-04-21T13:23:30.349Z,29.52
2023-04-21T13:28:33.318Z,28.99
2023-04-21T13:33:37.643Z,28.95
2023-04-21T13:38:40.945Z,29.16
2023-04-21T13:43:43.845Z,29.22
2023-04-21T13:48:48.104Z,29.24
2023-04-21T13:53:50.909Z,28.87
2023-04-21T13:58:55.102Z,29.02
2023-04-21T14:03:59.476Z,29.17
2023-04-21T14:09:02.438Z,29.25
2023-04-21T14:14:09.565Z,30.26
2023-04-21T14:19:15.495Z,30.27
2023-04-21T14:24:18.400Z,30.35
2023-04-21T14:29:21.324Z,29.75
2023-04-21T14:34:25.811Z,29.36
2023-04-21T14:39:28.625Z,30.72
2023-04-21T14:44:31.400Z,30.51
2023-04-21T14:49:36.109Z,30.84
2023-04-21T14:54:39.357Z,31.71
2023-04-21T14:59:43.737Z,31.87
2023-04-21T15:04:48.312Z,32.26
2023-04-21T15:09:51.382Z,32.06
2023-04-21T15:14:54.237Z,31.12
2023-04-21T15:19:58.523Z,31.17
2023-04-21T15:25:01.362Z,31.25
2023-04-21T15:30:04.825Z,31.03
2023-04-21T15:35:09.902Z,31.81
2023-04-21T15:40:13.259Z,31.30
2023-04-21T15:45:17.819Z,32.09
2023-04-21T15:50:23.223Z,31.70
2023-04-21T15:55:27.850Z,32.58
2023-04-21T16:00:30.690Z,31.72
2023-04-21T16:05:35.065Z,32.02
2023-04-21T16:10:38.079Z,32.40
2023-04-21T16:15:41.331Z,32.89
2023-04-21T16:20:46.121Z,32.79
2023-04-21T16:25:49.570Z,33.20
2023-04-21T16:30:52.378Z,33.02
2023-04-21T16:35:57.685Z,33.30
2023-04-21T16:41:00.684Z,33.62
2023-04-21T16:46:03.502Z,34.24
2023-04-21T16:51:07.838Z,33.79
2023-04-21T16:56:10.993Z,34.11
2023-04-21T17:01:14.581Z,33.84
2023-04-21T17:06:20.971Z,33.75
2023-04-21T17:11:23.730Z,34.09
2023-04-21T17:16:26.600Z,34.07
2023-04-21T17:21:31.709Z,34.03
2023-04-21T17:26:34.663Z,34.34
2023-04-21T17:31:37.953Z,34.73
2023-04-21T17:36:44.220Z,34.92
2023-04-21T17:41:48.374Z,34.45
2023-04-21T17:46:52.271Z,34.50
2023-04-21T17:51:56.611Z,34.47
2023-04-21T17:56:59.518Z,34.89
2023-04-21T18:02:02.437Z,35.35
2023-04-21T18:07:07.131Z,35.21
2023-04-21T18:12:10.058Z,36.18
2023-04-21T18:17:14.702Z,37.42
2023-04-21T18:22:20.778Z,38.49
2023-04-21T18:27:23.677Z,39.53
2023-04-21T18:32:26.732Z,40.13
2023-04-21T18:37:30.997Z,41.19
2023-04-21T18:42:34.639Z,41.45
2023-04-21T18:47:39.218Z,41.64
2023-04-21T18:52:43.514Z,41.62
2023-04-21T18:57:46.389Z,42.42
2023-04-21T19:02:51.099Z,42.36
2023-04-21T19:07:55.393Z,42.10
2023-04-21T19:12:58.201Z,42.47
2023-04-21T19:18:01.110Z,42.42
2023-04-21T19:23:05.658Z,42.79
2023-04-21T19:28:08.628Z,42.92
2023-04-21T19:33:11.496Z,42.98
2023-04-21T19:38:16.037Z,42.40
2023-04-21T19:43:20.224Z,42.36
2023-04-21T19:48:23.973Z,42.44
2023-04-21T19:53:28.216Z,42.24
2023-04-21T19:58:40.151Z,42.15
2023-04-21T20:03:43.722Z,42.06
2023-04-21T20:08:48.094Z,42.61
2023-04-21T20:13:51.179Z,42.53
2023-04-21T20:18:54.023Z,42.15
2023-04-21T20:23:58.266Z,42.69
2023-04-21T20:29:01.103Z,42.02
2023-04-21T20:34:03.969Z,42.58
2023-04-21T20:39:08.412Z,42.84
2023-04-21T20:44:12.711Z,42.51
2023-04-21T20:49:15.539Z,42.65
2023-04-21T20:54:19.705Z,42.03
2023-04-21T20:59:22.446Z,42.30
2023-04-21T21:04:25.260Z,42.28
2023-04-21T21:09:29.512Z,42.38
2023-04-21T21:14:32.410Z,42.28
2023-04-21T21:19:35.236Z,42.33
2023-04-21T21:24:39.448Z,42.25
2023-04-21T21:29:44.258Z,42.52
2023-04-21T21:34:47.476Z,42.03
2023-04-21T21:39:52.611Z,41.59
2023-04-21T21:44:55.403Z,41.63
2023-04-21T21:49:59.063Z,41.20
2023-04-21T21:55:03.160Z,41.26
2023-04-21T22:00:08.156Z,41.18
2023-04-21T22:05:11.611Z,41.21
2023-04-21T22:10:15.905Z,41.75
2023-04-21T22:15:19.630Z,41.39
2023-04-21T22:20:22.805Z,41.53
2023-04-21T22:25:27.710Z,41.72
2023-04-21T22:30:30.671Z,41.17
2023-04-21T22:35:33.412Z,41.61
2023-04-21T22:40:37.695Z,41.98
2023-04-21T22:45:41.232Z,41.72
2023-04-21T22:50:44.815Z,41.70
2023-04-21T22:55:49.108Z,41.29
2023-04-21T23:00:51.997Z,41.10
2023-04-21T23:05:54.816Z,40.47
2023-04-21T23:10:59.095Z,40.78
2023-04-21T23:16:02.130Z,41.08
2023-04-21T23:21:05.121Z,41.21
2023-04-21T23:26:09.243Z,41.38
2023-04-21T23:31:12.656Z,41.82
2023-04-21T23:36:15.405Z,41.56
2023-04-21T23:41:19.486Z,41.63
2023-04-21T23:46:22.224Z,41.37
2023-04-21T23:51:25.137Z,41.96
2023-04-21T23:56:29.343Z,41.42
